Observations

81.5 °F / 27.5 °C
ENE at 21 MPH
83%
75.9°F / 24.4 °C
29.8" (1009 mb)
10 mile(s)
partly cloudy
2021.05.16 1500 UTC

Observations

Surface


Raw METARs

2021/05/16 15:00
PKWA 161500Z AUTO 07018KT 10SM SCT018 SCT023 28/24 A2980 RMK AO2 T02750244

Translated METAR

Kwajalein, Bucholz AAF, Kwajalein KMR ATOL Airport, Marshall Islands (PKWA) 08-43N 167-44E 2M
May 16, 2021 - 11:00 AM EDT / 2021.05.16 1500 UTC
Wind: from the ENE (070 degrees) at 21 MPH (18 KT):0
Visibility: 10 mile(s):0
Sky conditions: partly cloudy
Temperature: 81.5 F (27.5 C)
Dew Point: 75.9 F (24.4 C)
Relative Humidity: 83%
Pressure (altimeter): 29.8 in. Hg (1009 hPa)
ob: PKWA 161500Z AUTO 07018KT 10SM SCT018 SCT023 28/24 A2980 RMK AO2 T02750244
cycle: 15



Upper Air


Latest Skew-T

Skew T Diagram

Latest Data File